createdAt,value
2023-01-29T00:02:06.141Z,98219.88
2023-01-29T00:04:32.904Z,98218.16
2023-01-29T00:06:59.698Z,98225.88
2023-01-29T00:09:27.583Z,98225.06
2023-01-29T00:11:54.186Z,98228.50
2023-01-29T00:14:20.899Z,98238.88
2023-01-29T00:16:47.501Z,98238.84
2023-01-29T00:19:14.061Z,98246.59
2023-01-29T00:21:40.648Z,98250.06
2023-01-29T00:24:07.486Z,98250.06
2023-01-29T00:26:34.158Z,98259.53
2023-01-29T00:29:02.055Z,98246.59
2023-01-29T00:31:29.040Z,98242.28
2023-01-29T00:33:55.679Z,98240.59
2023-01-29T00:36:23.195Z,98243.16
2023-01-29T00:38:58.715Z,98237.16
2023-01-29T00:41:48.962Z,98231.97
2023-01-29T00:44:34.722Z,98233.72
2023-01-29T00:47:02.039Z,98239.72
2023-01-29T00:49:30.273Z,98244.91
2023-01-29T00:52:17.357Z,98234.53
2023-01-29T00:54:43.937Z,98225.94
2023-01-29T00:57:10.624Z,98220.78
2023-01-29T00:59:37.768Z,98215.59
2023-01-29T01:02:23.188Z,98217.31
2023-01-29T01:04:49.770Z,98201.84
2023-01-29T01:07:16.401Z,98204.41
2023-01-29T01:10:01.365Z,98202.66
2023-01-29T01:12:28.381Z,98198.34
2023-01-29T01:14:55.005Z,98191.47
2023-01-29T01:17:21.787Z,98185.47
2023-01-29T01:19:48.842Z,98179.41
2023-01-29T01:22:15.741Z,98175.97
2023-01-29T01:24:43.967Z,98177.69
2023-01-29T01:27:10.614Z,98167.34
2023-01-29T01:29:37.238Z,98165.66
2023-01-29T01:32:04.004Z,98153.63
2023-01-29T01:34:30.641Z,98147.63
2023-01-29T01:36:57.360Z,98148.50
2023-01-29T01:39:24.813Z,98153.66
2023-01-29T01:41:56.086Z,98157.09
2023-01-29T01:44:50.469Z,98158.84
2023-01-29T01:47:20.557Z,98156.19
2023-01-29T01:49:47.576Z,98150.16
2023-01-29T01:52:16.535Z,98147.56
2023-01-29T01:54:44.357Z,98150.06
2023-01-29T01:57:17.181Z,98150.91
2023-01-29T01:59:53.724Z,98157.78
2023-01-29T02:02:38.855Z,98158.63
2023-01-29T02:05:25.198Z,98157.78
2023-01-29T02:08:11.032Z,98168.81
2023-01-29T02:10:47.038Z,98164.47
2023-01-29T02:13:17.376Z,98161.88
2023-01-29T02:15:48.927Z,98175.69
2023-01-29T02:18:18.019Z,98169.59
2023-01-29T02:21:15.309Z,98183.91
2023-01-29T02:23:54.268Z,98190.75
2023-01-29T02:26:33.022Z,98193.25
2023-01-29T02:29:25.335Z,98208.69
2023-01-29T02:32:20.200Z,98211.34
2023-01-29T02:35:18.611Z,98210.31
2023-01-29T02:37:57.845Z,98212.69
2023-01-29T02:40:40.453Z,98216.34
2023-01-29T02:43:45.403Z,98213.75
2023-01-29T02:46:37.146Z,98206.84
2023-01-29T02:49:40.962Z,98206.84
2023-01-29T02:52:18.629Z,98206.84
2023-01-29T02:54:57.059Z,98197.34
2023-01-29T02:57:30.523Z,98194.78
2023-01-29T03:00:27.866Z,98186.09
2023-01-29T03:02:57.791Z,98186.81
2023-01-29T03:05:53.392Z,98179.91
2023-01-29T03:08:37.052Z,98170.41
2023-01-29T03:11:06.796Z,98181.53
2023-01-29T03:13:53.539Z,98182.91
2023-01-29T03:16:30.390Z,98182.88
2023-01-29T03:19:10.927Z,98176.09
2023-01-29T03:21:51.599Z,98182.22
2023-01-29T03:24:44.887Z,98178.81
2023-01-29T03:27:34.810Z,98182.13
2023-01-29T03:30:23.125Z,98180.84
2023-01-29T03:33:03.467Z,98181.72
2023-01-29T03:35:36.953Z,98186.88
2023-01-29T03:38:07.489Z,98192.13
2023-01-29T03:40:42.387Z,98196.41
2023-01-29T03:43:29.901Z,98194.75
2023-01-29T03:46:11.778Z,98184.38
2023-01-29T03:48:48.298Z,98183.41
2023-01-29T03:51:25.099Z,98186.00
2023-01-29T03:54:04.240Z,98178.50
2023-01-29T03:56:42.589Z,98185.47
2023-01-29T03:59:22.782Z,98191.56
2023-01-29T04:02:19.323Z,98197.72
2023-01-29T04:04:51.959Z,98195.25
2023-01-29T04:07:24.511Z,98186.59
2023-01-29T04:10:28.320Z,98178.00
2023-01-29T04:13:15.919Z,98190.13
2023-01-29T04:15:50.436Z,98199.72
2023-01-29T04:18:19.931Z,98196.28
2023-01-29T04:21:07.399Z,98207.50
2023-01-29T04:23:34.335Z,98202.47
2023-01-29T04:26:18.027Z,98199.19
2023-01-29T04:28:56.071Z,98206.06
2023-01-29T04:31:31.025Z,98208.72
2023-01-29T04:34:12.719Z,98200.94
2023-01-29T04:36:57.748Z,98202.59
2023-01-29T04:39:30.123Z,98197.59
2023-01-29T04:42:12.215Z,98198.41
2023-01-29T04:44:49.835Z,98196.75
2023-01-29T04:47:45.176Z,98194.31
2023-01-29T04:50:26.563Z,98180.56
2023-01-29T04:53:24.207Z,98175.44
2023-01-29T04:56:13.683Z,98155.75
2023-01-29T04:58:45.009Z,98152.25
2023-01-29T05:01:16.575Z,98131.66
2023-01-29T05:03:46.954Z,98119.72
2023-01-29T05:06:15.898Z,98105.19
2023-01-29T05:08:42.564Z,98118.09
2023-01-29T05:11:10.515Z,98130.13
2023-01-29T05:13:40.709Z,98130.22
2023-01-29T05:16:19.463Z,98136.25
2023-01-29T05:18:46.555Z,98145.75
2023-01-29T05:21:13.301Z,98146.59
2023-01-29T05:23:39.975Z,98147.50
2023-01-29T05:26:06.539Z,98153.53
2023-01-29T05:28:33.162Z,98157.84
2023-01-29T05:30:59.800Z,98161.28
2023-01-29T05:33:29.169Z,98162.13
2023-01-29T05:35:57.072Z,98167.31
2023-01-29T05:38:23.881Z,98165.59
2023-01-29T05:40:50.466Z,98162.13
2023-01-29T05:43:22.767Z,98153.50
2023-01-29T05:45:54.655Z,98156.97
2023-01-29T05:48:21.820Z,98170.78
2023-01-29T05:50:48.579Z,98167.38
2023-01-29T05:53:15.729Z,98164.78
2023-01-29T05:55:46.827Z,98164.78
2023-01-29T05:58:13.683Z,98161.38
2023-01-29T06:00:41.061Z,98161.34
2023-01-29T06:03:07.835Z,98159.66
2023-01-29T06:05:38.550Z,98151.88
2023-01-29T06:08:05.665Z,98157.84
2023-01-29T06:10:32.527Z,98159.59
2023-01-29T06:12:59.152Z,98151.88
2023-01-29T06:15:26.582Z,98157.06
2023-01-29T06:17:57.072Z,98159.63
2023-01-29T06:20:24.574Z,98156.16
2023-01-29T06:22:51.130Z,98152.72
2023-01-29T06:25:17.816Z,98146.75
2023-01-29T06:27:44.417Z,98130.41
2023-01-29T06:30:11.587Z,98115.75
2023-01-29T06:32:38.494Z,98113.19
2023-01-29T06:35:05.588Z,98114.06
2023-01-29T06:37:32.207Z,98118.34
2023-01-29T06:39:58.795Z,98124.38
2023-01-29T06:42:28.034Z,98114.06
2023-01-29T06:44:58.159Z,98115.75
2023-01-29T06:47:25.201Z,98126.06
2023-01-29T06:49:52.319Z,98132.97
2023-01-29T06:52:19.192Z,98135.56
2023-01-29T06:54:45.777Z,98149.25
2023-01-29T06:57:12.363Z,98138.91
2023-01-29T06:59:38.967Z,98147.56
2023-01-29T07:02:05.558Z,98165.63
2023-01-29T07:04:32.265Z,98158.75
2023-01-29T07:07:01.883Z,98162.22
2023-01-29T07:09:28.543Z,98160.50
2023-01-29T07:11:55.094Z,98155.28
2023-01-29T07:14:21.665Z,98154.41
2023-01-29T07:16:48.273Z,98167.31
2023-01-29T07:19:14.873Z,98166.50
2023-01-29T07:21:41.412Z,98165.66
2023-01-29T07:24:08.341Z,98160.50
2023-01-29T07:26:34.961Z,98163.00
2023-01-29T07:29:01.511Z,98151.88
2023-01-29T07:31:28.363Z,98156.19
2023-01-29T07:33:55.768Z,98146.72
2023-01-29T07:36:22.385Z,98156.22
2023-01-29T07:38:50.596Z,98149.34
2023-01-29T07:41:17.318Z,98148.47
2023-01-29T07:43:45.829Z,98145.91
2023-01-29T07:46:12.512Z,98157.13
2023-01-29T07:48:39.194Z,98160.56
2023-01-29T07:51:06.093Z,98152.81
2023-01-29T07:53:32.851Z,98173.47
2023-01-29T07:55:59.418Z,98175.19
2023-01-29T07:58:26.024Z,98170.91
2023-01-29T08:00:52.822Z,98172.63
2023-01-29T08:03:20.780Z,98181.22
2023-01-29T08:05:47.752Z,98168.28
2023-01-29T08:08:14.833Z,98181.22
2023-01-29T08:10:42.454Z,98170.00
2023-01-29T08:13:09.809Z,98171.75
2023-01-29T08:18:23.542Z,98176.03
2023-01-29T08:20:50.101Z,98191.53
2023-01-29T08:23:16.685Z,98200.16
2023-01-29T08:25:43.549Z,98200.13
2023-01-29T08:28:11.721Z,98210.47
2023-01-29T08:30:38.967Z,98207.91
2023-01-29T08:33:05.539Z,98192.41
2023-01-29T08:35:32.212Z,98195.81
2023-01-29T08:38:01.305Z,98194.06
2023-01-29T08:40:29.566Z,98195.81
2023-01-29T08:43:06.980Z,98193.25
2023-01-29T08:45:37.629Z,98176.03
2023-01-29T08:48:04.532Z,98176.03
2023-01-29T08:50:31.953Z,98174.31
2023-01-29T08:52:59.521Z,98173.44
2023-01-29T08:55:26.602Z,98181.19
2023-01-29T08:57:53.387Z,98181.22
2023-01-29T09:00:20.409Z,98181.22
2023-01-29T09:02:47.201Z,98179.50
2023-01-29T09:05:13.863Z,98177.78
2023-01-29T09:07:40.462Z,98184.66
2023-01-29T09:10:08.153Z,98192.41
2023-01-29T09:12:34.729Z,98197.59
2023-01-29T09:15:01.296Z,98190.69
2023-01-29T09:17:27.888Z,98200.16
2023-01-29T09:19:54.692Z,98199.28
2023-01-29T09:22:21.335Z,98207.88
2023-01-29T09:24:47.957Z,98199.28
2023-01-29T09:27:14.627Z,98200.13
2023-01-29T09:29:41.276Z,98204.41
2023-01-29T09:32:07.908Z,98209.56
2023-01-29T09:34:34.921Z,98198.38
2023-01-29T09:37:01.575Z,98190.59
2023-01-29T09:39:28.220Z,98187.94
2023-01-29T09:42:00.403Z,98191.34
2023-01-29T09:44:38.123Z,98197.34
2023-01-29T09:47:11.103Z,98205.88
2023-01-29T09:49:43.494Z,98205.97
2023-01-29T09:52:27.112Z,98205.00
2023-01-29T09:55:02.583Z,98211.03
2023-01-29T09:57:51.819Z,98217.00
2023-01-29T10:00:34.621Z,98210.81
2023-01-29T10:03:32.204Z,98199.53
2023-01-29T10:06:06.220Z,98191.63
2023-01-29T10:08:32.758Z,98203.69
2023-01-29T10:11:21.478Z,98195.13
2023-01-29T10:14:20.188Z,98190.03
2023-01-29T10:17:05.697Z,98176.25
2023-01-29T10:19:46.144Z,98158.09
2023-01-29T10:22:42.163Z,98160.69
2023-01-29T10:25:15.702Z,98150.31
2023-01-29T10:27:49.670Z,98139.22
2023-01-29T10:30:45.879Z,98122.38
2023-01-29T10:33:25.648Z,98124.03
2023-01-29T10:36:00.436Z,98123.25
2023-01-29T10:38:46.744Z,98117.22
2023-01-29T10:41:39.773Z,98118.47
2023-01-29T10:44:45.159Z,98117.63
2023-01-29T10:47:27.238Z,98116.50
2023-01-29T10:50:23.632Z,98107.88
2023-01-29T10:53:22.389Z,98093.25
2023-01-29T10:56:22.277Z,98086.22
2023-01-29T10:58:54.314Z,98076.81
2023-01-29T11:01:21.007Z,98079.25
2023-01-29T11:03:57.418Z,98074.53
2023-01-29T11:06:35.165Z,98070.06
2023-01-29T11:09:24.041Z,98065.00
2023-01-29T11:11:55.108Z,98060.50
2023-01-29T11:14:26.443Z,98065.56
2023-01-29T11:16:53.426Z,98065.38
2023-01-29T11:19:44.268Z,98066.72
2023-01-29T11:22:21.001Z,98054.34
2023-01-29T11:25:09.991Z,98049.88
2023-01-29T11:27:50.933Z,98047.91
2023-01-29T11:30:28.296Z,98048.81
2023-01-29T11:33:09.726Z,98042.19
2023-01-29T11:35:36.760Z,98045.38
2023-01-29T11:38:28.008Z,98040.38
2023-01-29T11:41:06.782Z,98044.31
2023-01-29T11:43:34.037Z,98041.50
2023-01-29T11:46:07.290Z,98045.84
2023-01-29T11:48:42.005Z,98044.75
2023-01-29T11:51:12.572Z,98042.38
2023-01-29T11:53:43.244Z,98040.81
2023-01-29T11:56:24.096Z,98012.09
2023-01-29T11:58:52.696Z,98006.88
2023-01-29T12:01:30.523Z,98002.75
2023-01-29T12:03:57.312Z,98009.38
2023-01-29T12:06:33.633Z,98006.25
2023-01-29T12:09:02.525Z,97996.06
2023-01-29T12:11:30.825Z,97998.84
2023-01-29T12:14:00.883Z,97993.47
2023-01-29T12:16:33.327Z,97981.31
2023-01-29T12:19:20.191Z,97982.44
2023-01-29T12:21:52.522Z,97976.72
2023-01-29T12:24:19.310Z,97973.84
2023-01-29T12:26:51.846Z,97963.63
2023-01-29T12:29:25.957Z,97960.88
2023-01-29T12:32:12.494Z,97966.63
2023-01-29T12:34:50.683Z,97949.69
2023-01-29T12:37:40.550Z,97939.34
2023-01-29T12:40:16.711Z,97937.06
2023-01-29T12:42:48.813Z,97943.69
2023-01-29T12:45:18.683Z,97926.91
2023-01-29T12:47:53.955Z,97933.78
2023-01-29T12:50:31.479Z,97929.31
2023-01-29T12:53:07.853Z,97926.69
2023-01-29T12:55:43.663Z,97921.91
2023-01-29T12:58:22.788Z,97916.53
2023-01-29T13:00:52.940Z,97931.47
2023-01-29T13:03:28.845Z,97920.25
2023-01-29T13:06:16.575Z,97922.09
2023-01-29T13:08:56.215Z,97913.47
2023-01-29T13:11:32.811Z,97907.22
2023-01-29T13:14:20.569Z,97898.59
2023-01-29T13:16:51.532Z,97903.84
2023-01-29T13:19:27.488Z,97906.34
2023-01-29T13:21:57.563Z,97914.31
2023-01-29T13:24:27.462Z,97910.78
2023-01-29T13:26:54.154Z,97909.69
2023-01-29T13:29:30.108Z,97903.56
2023-01-29T13:32:02.165Z,97900.78
2023-01-29T13:34:35.409Z,97899.84
2023-01-29T13:37:09.816Z,97894.78
2023-01-29T13:39:46.536Z,97886.16
2023-01-29T13:42:23.159Z,97885.13
2023-01-29T13:44:52.885Z,97880.66
2023-01-29T13:47:37.542Z,97886.00
2023-01-29T13:50:07.848Z,97885.84
2023-01-29T13:52:39.743Z,97892.78
2023-01-29T13:55:31.017Z,97893.75
2023-01-29T13:58:00.318Z,97886.84
2023-01-29T14:00:32.891Z,97888.59
2023-01-29T14:03:08.555Z,97892.97
2023-01-29T14:05:41.685Z,97885.16
2023-01-29T14:08:14.128Z,97879.94
2023-01-29T14:10:42.500Z,97871.66
2023-01-29T14:13:18.261Z,97873.34
2023-01-29T14:16:05.189Z,97868.81
2023-01-29T14:18:34.243Z,97861.09
2023-01-29T14:21:06.945Z,97863.88
2023-01-29T14:23:49.247Z,97857.28
2023-01-29T14:26:32.246Z,97855.56
2023-01-29T14:29:04.393Z,97849.38
2023-01-29T14:32:06.760Z,97855.28
2023-01-29T14:34:36.103Z,97853.66
2023-01-29T14:37:14.943Z,97849.59
2023-01-29T14:39:58.194Z,97853.97
2023-01-29T14:42:33.877Z,97846.06
2023-01-29T14:45:21.347Z,97856.56
2023-01-29T14:47:47.867Z,97853.22
2023-01-29T14:50:31.704Z,97843.56
2023-01-29T14:53:16.847Z,97836.78
2023-01-29T14:55:55.095Z,97829.06
2023-01-29T14:58:48.138Z,97831.63
2023-01-29T15:01:26.963Z,97830.06
2023-01-29T15:04:14.768Z,97831.78
2023-01-29T15:06:47.555Z,97825.75
2023-01-29T15:09:36.653Z,97832.06
2023-01-29T15:12:18.772Z,97829.34
2023-01-29T15:15:26.126Z,97813.03
2023-01-29T15:18:29.082Z,97806.13
2023-01-29T15:21:05.595Z,97807.00
2023-01-29T15:23:34.380Z,97794.97
2023-01-29T15:26:04.287Z,97801.16
2023-01-29T15:28:33.016Z,97793.41
2023-01-29T15:31:01.726Z,97797.09
2023-01-29T15:33:28.955Z,97793.63
2023-01-29T15:36:08.029Z,97794.47
2023-01-29T15:38:35.704Z,97785.09
2023-01-29T15:41:17.865Z,97780.03
2023-01-29T15:43:48.442Z,97790.44
2023-01-29T15:46:39.647Z,97785.56
2023-01-29T15:49:09.828Z,97783.78
2023-01-29T15:51:36.937Z,97794.22
2023-01-29T15:54:05.708Z,97791.66
2023-01-29T15:56:49.300Z,97798.69
2023-01-29T15:59:22.808Z,97800.50
2023-01-29T16:01:49.517Z,97797.16
2023-01-29T16:04:25.688Z,97801.44
2023-01-29T16:06:54.743Z,97807.56
2023-01-29T16:09:25.310Z,97809.34
2023-01-29T16:11:54.561Z,97812.94
2023-01-29T16:14:25.487Z,97830.22
2023-01-29T16:16:53.563Z,97832.88
2023-01-29T16:19:22.219Z,97835.47
2023-01-29T16:21:56.587Z,97852.69
2023-01-29T16:24:24.974Z,97847.63
2023-01-29T16:26:58.100Z,97854.53
2023-01-29T16:29:31.191Z,97852.00
2023-01-29T16:32:01.951Z,97852.00
2023-01-29T16:34:28.626Z,97836.56
2023-01-29T16:36:56.064Z,97855.56
2023-01-29T16:39:32.598Z,97851.28
2023-01-29T16:42:17.397Z,97849.59
2023-01-29T16:44:55.570Z,97860.84
2023-01-29T16:47:41.476Z,97860.88
2023-01-29T16:50:27.295Z,97864.31
2023-01-29T16:53:01.242Z,97863.47
2023-01-29T16:55:35.747Z,97858.31
2023-01-29T16:58:18.129Z,97868.69
2023-01-29T17:01:01.110Z,97866.16
2023-01-29T17:03:30.295Z,97873.91
2023-01-29T17:05:56.950Z,97868.72
2023-01-29T17:08:33.530Z,97871.34
2023-01-29T17:11:01.160Z,97871.38
2023-01-29T17:13:36.052Z,97879.13
2023-01-29T17:16:20.234Z,97873.09
2023-01-29T17:18:46.828Z,97879.13
2023-01-29T17:21:13.420Z,97885.19
2023-01-29T17:23:40.007Z,97880.88
2023-01-29T17:26:10.164Z,97883.44
2023-01-29T17:28:37.385Z,97879.13
2023-01-29T17:31:06.918Z,97873.09
2023-01-29T17:33:35.696Z,97878.25
2023-01-29T17:36:02.278Z,97867.91
2023-01-29T17:38:28.894Z,97865.34
2023-01-29T17:41:23.575Z,97864.47
2023-01-29T17:43:50.969Z,97861.88
2023-01-29T17:46:19.023Z,97858.41
2023-01-29T17:48:46.469Z,97858.44
2023-01-29T17:51:15.136Z,97850.69
2023-01-29T17:53:45.850Z,97838.66
2023-01-29T17:56:35.010Z,97832.63
2023-01-29T17:59:02.011Z,97830.88
2023-01-29T18:01:28.589Z,97833.47
2023-01-29T18:03:55.284Z,97840.34
2023-01-29T18:06:29.795Z,97842.94
2023-01-29T18:08:57.135Z,97835.19
2023-01-29T18:11:24.139Z,97830.91
2023-01-29T18:13:51.386Z,97822.31
2023-01-29T18:16:18.542Z,97828.31
2023-01-29T18:18:45.203Z,97818.88
2023-01-29T18:21:11.774Z,97818.00
2023-01-29T18:23:38.387Z,97824.91
2023-01-29T18:26:05.978Z,97834.34
2023-01-29T18:28:33.205Z,97830.84
2023-01-29T18:31:05.899Z,97834.28
2023-01-29T18:33:34.244Z,97835.09
2023-01-29T18:36:01.579Z,97826.44
2023-01-29T18:38:28.168Z,97827.31
2023-01-29T18:41:02.926Z,97828.09
2023-01-29T18:43:29.812Z,97822.97
2023-01-29T18:45:59.925Z,97820.38
2023-01-29T18:48:26.688Z,97820.38
2023-01-29T18:50:53.315Z,97812.63
2023-01-29T18:53:20.163Z,97816.03
2023-01-29T18:55:58.121Z,97806.53
2023-01-29T18:58:34.221Z,97800.50
2023-01-29T19:01:09.408Z,97797.91
2023-01-29T19:03:37.700Z,97799.69
2023-01-29T19:06:06.789Z,97794.53
2023-01-29T19:08:34.490Z,97785.00
2023-01-29T19:11:04.204Z,97784.97
2023-01-29T19:13:34.661Z,97781.50
2023-01-29T19:16:02.437Z,97771.06
2023-01-29T19:18:28.999Z,97759.00
2023-01-29T19:20:55.650Z,97764.13
2023-01-29T19:23:22.508Z,97771.00
2023-01-29T19:25:49.161Z,97773.50
2023-01-29T19:28:15.874Z,97770.06
2023-01-29T19:30:42.550Z,97771.75
2023-01-29T19:33:10.461Z,97764.81
2023-01-29T19:35:37.227Z,97769.19
2023-01-29T19:38:04.393Z,97764.03
2023-01-29T19:40:31.210Z,97765.69
2023-01-29T19:42:58.430Z,97755.28
2023-01-29T19:45:42.075Z,97749.22
2023-01-29T19:48:14.772Z,97745.72
2023-01-29T19:50:42.546Z,97741.44
2023-01-29T19:53:09.943Z,97740.56
2023-01-29T19:55:36.675Z,97741.38
2023-01-29T19:58:05.108Z,97738.75
2023-01-29T20:00:31.931Z,97737.84
2023-01-29T20:02:59.130Z,97738.66
2023-01-29T20:05:27.326Z,97738.66
2023-01-29T20:07:54.286Z,97736.00
2023-01-29T20:10:21.291Z,97733.41
2023-01-29T20:12:47.863Z,97719.59
2023-01-29T20:15:15.326Z,97717.78
2023-01-29T20:17:42.445Z,97713.38
2023-01-29T20:20:09.984Z,97713.38
2023-01-29T20:22:36.702Z,97721.09
2023-01-29T20:25:03.379Z,97720.22
2023-01-29T20:27:30.100Z,97718.47
2023-01-29T20:29:57.397Z,97715.91
2023-01-29T20:32:25.793Z,97715.09
2023-01-29T20:34:52.525Z,97713.28
2023-01-29T20:37:19.675Z,97709.91
2023-01-29T20:39:47.115Z,97705.44
2023-01-29T20:42:13.799Z,97710.72
2023-01-29T20:44:40.468Z,97708.13
2023-01-29T20:47:07.100Z,97707.25
2023-01-29T20:49:33.924Z,97696.88
2023-01-29T20:52:00.527Z,97699.44
2023-01-29T20:54:27.247Z,97702.84
2023-01-29T20:56:54.293Z,97702.75
2023-01-29T20:59:21.584Z,97705.34
2023-01-29T21:01:48.518Z,97706.19
2023-01-29T21:04:15.559Z,97704.56
2023-01-29T21:06:42.506Z,97709.66
2023-01-29T21:09:09.119Z,97697.56
2023-01-29T21:11:35.867Z,97700.16
2023-01-29T21:14:02.587Z,97684.63
2023-01-29T21:16:29.434Z,97680.25
2023-01-29T21:18:59.609Z,97672.53
2023-01-29T21:21:26.845Z,97665.69
2023-01-29T21:23:54.266Z,97661.34
2023-01-29T21:26:20.986Z,97651.72
2023-01-29T21:28:47.626Z,97661.34
2023-01-29T21:31:16.224Z,97647.59
2023-01-29T21:33:43.209Z,97644.00
2023-01-29T21:36:10.451Z,97641.41
2023-01-29T21:38:37.151Z,97622.50
2023-01-29T21:41:06.134Z,97612.16
2023-01-29T21:43:33.108Z,97613.16
2023-01-29T21:46:04.887Z,97598.28
2023-01-29T21:48:31.786Z,97613.13
2023-01-29T21:50:58.387Z,97618.22
2023-01-29T21:53:25.088Z,97607.03
2023-01-29T21:55:51.821Z,97612.22
2023-01-29T21:58:19.858Z,97613.13
2023-01-29T22:00:48.793Z,97613.97
2023-01-29T22:03:15.698Z,97600.16
2023-01-29T22:05:42.488Z,97611.34
2023-01-29T22:08:09.919Z,97602.72
2023-01-29T22:10:37.216Z,97604.38
2023-01-29T22:13:03.914Z,97610.41
2023-01-29T22:15:30.796Z,97618.22
2023-01-29T22:17:57.354Z,97604.34
2023-01-29T22:20:30.848Z,97613.03
2023-01-29T22:23:03.330Z,97601.75
2023-01-29T22:25:34.087Z,97574.94
2023-01-29T22:28:01.609Z,97575.78
2023-01-29T22:30:29.208Z,97574.88
2023-01-29T22:32:56.406Z,97574.91
2023-01-29T22:35:23.843Z,97577.50
2023-01-29T22:37:50.592Z,97578.38
2023-01-29T22:40:17.888Z,97588.72
2023-01-29T22:42:44.685Z,97573.22
2023-01-29T22:45:12.233Z,97565.31
2023-01-29T22:47:38.889Z,97551.50
2023-01-29T22:50:06.526Z,97567.91
2023-01-29T22:52:42.874Z,97570.53
2023-01-29T22:55:11.039Z,97567.03
2023-01-29T22:57:38.339Z,97562.69
2023-01-29T23:00:12.639Z,97564.47
2023-01-29T23:02:39.279Z,97572.22
2023-01-29T23:05:06.527Z,97584.28
2023-01-29T23:07:33.667Z,97587.75
2023-01-29T23:10:00.283Z,97574.75
2023-01-29T23:12:26.934Z,97584.19
2023-01-29T23:14:53.482Z,97590.22
2023-01-29T23:17:20.291Z,97596.22
2023-01-29T23:19:46.855Z,97593.63
2023-01-29T23:22:13.446Z,97601.38
2023-01-29T23:24:40.085Z,97591.91
2023-01-29T23:27:15.377Z,97590.13
2023-01-29T23:29:43.522Z,97595.22
2023-01-29T23:32:12.166Z,97586.59
2023-01-29T23:34:39.092Z,97589.22
2023-01-29T23:37:05.753Z,97593.63
2023-01-29T23:39:32.329Z,97596.09
2023-01-29T23:41:59.219Z,97597.09
2023-01-29T23:44:25.916Z,97585.78
2023-01-29T23:46:52.834Z,97576.31
2023-01-29T23:49:19.527Z,97572.88
2023-01-29T23:51:50.788Z,97580.63
2023-01-29T23:54:17.903Z,97558.16
2023-01-29T23:56:45.302Z,97527.88
2023-01-29T23:59:12.120Z,97522.72
